createdAt,value
2022-07-25T00:01:51.455Z,98936.63
2022-07-25T00:04:39.494Z,98936.28
2022-07-25T00:07:26.971Z,98934.24
2022-07-25T00:10:14.625Z,98933.42
2022-07-25T00:13:02.177Z,98939.61
2022-07-25T00:15:49.638Z,98940.52
2022-07-25T00:18:37.081Z,98933.41
2022-07-25T00:21:24.523Z,98930.32
2022-07-25T00:24:12.153Z,98934.18
2022-07-25T00:26:59.455Z,98934.39
2022-07-25T00:29:47.370Z,98927.20
2022-07-25T00:32:34.754Z,98920.05
2022-07-25T00:35:22.454Z,98916.70
2022-07-25T00:38:09.907Z,98920.38
2022-07-25T00:40:57.273Z,98908.73
2022-07-25T00:43:48.618Z,98910.69
2022-07-25T00:46:39.584Z,98916.28
2022-07-25T00:49:28.106Z,98914.75
2022-07-25T00:52:15.544Z,98926.97
2022-07-25T00:55:03.045Z,98925.22
2022-07-25T00:57:50.814Z,98922.98
2022-07-25T01:00:38.690Z,98925.08
2022-07-25T01:03:26.165Z,98924.74
2022-07-25T01:06:13.801Z,98922.74
2022-07-25T01:09:02.204Z,98919.22
2022-07-25T01:11:49.435Z,98922.83
2022-07-25T01:14:36.611Z,98918.98
2022-07-25T01:17:23.857Z,98912.63
2022-07-25T01:20:23.068Z,98908.57
2022-07-25T01:23:10.242Z,98906.76
2022-07-25T01:25:57.535Z,98915.11
2022-07-25T01:28:45.473Z,98915.49
2022-07-25T01:31:32.904Z,98928.40
2022-07-25T01:34:20.610Z,98921.30
2022-07-25T01:37:07.715Z,98921.63
2022-07-25T01:39:55.195Z,98921.95
2022-07-25T01:42:43.866Z,98918.37
2022-07-25T01:45:31.532Z,98920.95
2022-07-25T01:48:19.116Z,98925.95
2022-07-25T01:51:09.632Z,98931.24
2022-07-25T01:53:58.810Z,98918.69
2022-07-25T01:56:48.415Z,98908.52
2022-07-25T01:59:40.386Z,98910.11
2022-07-25T02:02:27.841Z,98903.10
2022-07-25T02:05:16.442Z,98906.93
2022-07-25T02:08:04.058Z,98906.24
2022-07-25T02:10:51.601Z,98902.80
2022-07-25T02:13:39.242Z,98903.93
2022-07-25T02:16:29.103Z,98900.64
2022-07-25T02:19:16.289Z,98903.53
2022-07-25T02:22:04.169Z,98906.98
2022-07-25T02:24:51.515Z,98906.89
2022-07-25T02:27:38.946Z,98912.53
2022-07-25T02:30:26.380Z,98908.79
2022-07-25T02:33:14.104Z,98907.77
2022-07-25T02:36:01.682Z,98907.08
2022-07-25T02:38:49.010Z,98905.17
2022-07-25T02:41:36.427Z,98897.25
2022-07-25T02:44:23.865Z,98902.41
2022-07-25T02:47:11.219Z,98902.37
2022-07-25T02:49:58.861Z,98896.03
2022-07-25T02:52:46.379Z,98896.15
2022-07-25T02:55:34.050Z,98904.27
2022-07-25T02:58:21.826Z,98899.02
2022-07-25T03:01:09.350Z,98894.24
2022-07-25T03:03:56.854Z,98900.78
2022-07-25T03:06:44.722Z,98902.30
2022-07-25T03:09:32.616Z,98901.69
2022-07-25T03:12:20.378Z,98898.81
2022-07-25T03:15:08.706Z,98903.39
2022-07-25T03:17:55.993Z,98904.78
2022-07-25T03:20:43.782Z,98909.66
2022-07-25T03:23:31.352Z,98906.48
2022-07-25T03:26:18.754Z,98906.48
2022-07-25T03:29:05.895Z,98907.13
2022-07-25T03:31:53.531Z,98898.45
2022-07-25T03:34:41.184Z,98896.56
2022-07-25T03:37:28.841Z,98892.64
2022-07-25T03:40:16.352Z,98900.37
2022-07-25T03:43:03.826Z,98902.48
2022-07-25T03:45:51.029Z,98903.92
2022-07-25T03:48:38.423Z,98906.23
2022-07-25T03:51:26.288Z,98902.95
2022-07-25T03:54:16.712Z,98905.95
2022-07-25T03:57:04.113Z,98901.94
2022-07-25T03:59:51.422Z,98896.55
2022-07-25T04:02:39.084Z,98888.66
2022-07-25T04:05:26.279Z,98891.06
2022-07-25T04:08:14.192Z,98888.56
2022-07-25T04:11:01.417Z,98892.52
2022-07-25T04:13:49.899Z,98887.25
2022-07-25T04:16:37.395Z,98886.08
2022-07-25T04:19:28.300Z,98888.69
2022-07-25T04:22:15.672Z,98885.41
2022-07-25T04:25:02.862Z,98884.28
2022-07-25T04:27:50.168Z,98874.14
2022-07-25T04:30:37.703Z,98877.36
2022-07-25T04:33:24.971Z,98876.17
2022-07-25T04:36:12.152Z,98866.91
2022-07-25T04:38:59.707Z,98872.40
2022-07-25T04:41:47.538Z,98868.15
2022-07-25T04:44:35.306Z,98867.91
2022-07-25T04:47:22.627Z,98863.28
2022-07-25T04:50:11.111Z,98867.28
2022-07-25T04:52:58.648Z,98863.53
2022-07-25T04:55:46.650Z,98855.08
2022-07-25T04:58:34.553Z,98857.81
2022-07-25T05:01:21.886Z,98866.77
2022-07-25T05:04:09.513Z,98867.63
2022-07-25T05:06:57.544Z,98864.04
2022-07-25T05:09:45.944Z,98863.36
2022-07-25T05:12:33.680Z,98863.03
2022-07-25T05:15:20.753Z,98867.34
2022-07-25T05:18:08.593Z,98865.26
2022-07-25T05:20:55.784Z,98863.88
2022-07-25T05:23:43.343Z,98862.81
2022-07-25T05:26:31.015Z,98866.37
2022-07-25T05:29:18.226Z,98873.75
2022-07-25T05:32:06.007Z,98873.03
2022-07-25T05:34:53.489Z,98873.23
2022-07-25T05:37:41.786Z,98869.67
2022-07-25T05:40:29.224Z,98861.22
2022-07-25T05:43:16.976Z,98853.45
2022-07-25T05:46:05.728Z,98851.95
2022-07-25T05:48:53.271Z,98859.02
2022-07-25T05:51:41.016Z,98859.84
2022-07-25T05:54:28.338Z,98867.12
2022-07-25T05:57:15.888Z,98865.34
2022-07-25T06:00:05.015Z,98862.78
2022-07-25T06:02:52.622Z,98858.24
2022-07-25T06:05:40.771Z,98854.01
2022-07-25T06:08:29.911Z,98846.92
2022-07-25T06:11:18.113Z,98842.78
2022-07-25T06:14:06.278Z,98840.98
2022-07-25T06:16:54.897Z,98843.02
2022-07-25T06:19:42.264Z,98843.80
2022-07-25T06:22:31.103Z,98829.92
2022-07-25T06:25:18.567Z,98830.95
2022-07-25T06:28:06.346Z,98832.94
2022-07-25T06:30:55.515Z,98831.20
2022-07-25T06:33:42.889Z,98829.98
2022-07-25T06:36:32.650Z,98823.08
2022-07-25T06:39:19.297Z,98820.41
2022-07-25T06:42:06.753Z,98814.13
2022-07-25T06:44:54.392Z,98820.80
2022-07-25T06:47:43.465Z,98818.58
2022-07-25T06:50:31.417Z,98812.22
2022-07-25T06:53:18.738Z,98802.82
2022-07-25T06:56:06.536Z,98801.11
2022-07-25T06:58:54.784Z,98794.84
2022-07-25T07:01:42.273Z,98798.09
2022-07-25T07:04:29.551Z,98800.46
2022-07-25T07:07:17.449Z,98784.61
2022-07-25T07:10:04.794Z,98781.89
2022-07-25T07:12:52.754Z,98786.15
2022-07-25T07:15:40.853Z,98781.37
2022-07-25T07:18:29.513Z,98785.66
2022-07-25T07:21:21.006Z,98775.50
2022-07-25T07:24:18.505Z,98772.56
2022-07-25T07:26:56.011Z,98772.33
2022-07-25T07:29:43.089Z,98776.10
2022-07-25T07:32:30.378Z,98775.98
2022-07-25T07:35:19.301Z,98773.41
2022-07-25T07:38:06.688Z,98778.55
2022-07-25T07:40:54.730Z,98777.74
2022-07-25T07:43:42.433Z,98780.00
2022-07-25T07:46:29.972Z,98777.38
2022-07-25T07:49:18.021Z,98779.23
2022-07-25T07:52:06.115Z,98765.20
2022-07-25T07:55:11.217Z,98770.01
2022-07-25T07:57:59.816Z,98764.61
2022-07-25T08:00:49.130Z,98771.06
2022-07-25T08:03:37.449Z,98772.06
2022-07-25T08:06:25.026Z,98765.03
2022-07-25T08:09:12.457Z,98763.85
2022-07-25T08:12:00.371Z,98761.04
2022-07-25T08:14:47.952Z,98760.22
2022-07-25T08:17:35.242Z,98762.23
2022-07-25T08:20:39.551Z,98755.02
2022-07-25T08:23:13.038Z,98764.10
2022-07-25T08:26:01.379Z,98759.25
2022-07-25T08:28:59.935Z,98759.02
2022-07-25T08:31:38.062Z,98760.88
2022-07-25T08:34:25.322Z,98754.45
2022-07-25T08:37:13.883Z,98762.93
2022-07-25T08:40:01.133Z,98762.92
2022-07-25T08:42:49.561Z,98766.73
2022-07-25T08:45:37.827Z,98759.08
2022-07-25T08:48:27.285Z,98759.05
2022-07-25T08:51:14.872Z,98751.81
2022-07-25T08:54:02.718Z,98749.36
2022-07-25T08:56:50.136Z,98750.44
2022-07-25T08:59:37.657Z,98745.47
2022-07-25T09:02:24.926Z,98747.97
2022-07-25T09:05:12.393Z,98743.98
2022-07-25T09:08:08.842Z,98730.77
2022-07-25T09:10:55.962Z,98732.45
2022-07-25T09:13:43.208Z,98725.99
2022-07-25T09:16:32.002Z,98719.81
2022-07-25T09:19:21.967Z,98724.78
2022-07-25T09:22:10.327Z,98721.66
2022-07-25T09:24:57.890Z,98724.94
2022-07-25T09:27:45.448Z,98723.30
2022-07-25T09:30:32.770Z,98716.53
2022-07-25T09:33:20.458Z,98712.73
2022-07-25T09:36:12.318Z,98710.70
2022-07-25T09:39:05.354Z,98710.08
2022-07-25T09:41:52.763Z,98712.34
2022-07-25T09:44:40.304Z,98713.14
2022-07-25T09:47:27.776Z,98709.98
2022-07-25T09:50:15.153Z,98706.88
2022-07-25T09:53:03.809Z,98703.24
2022-07-25T09:55:53.008Z,98699.51
2022-07-25T09:58:40.650Z,98692.60
2022-07-25T10:01:31.268Z,98686.19
2022-07-25T10:04:25.776Z,98688.45
2022-07-25T10:07:15.469Z,98683.09
2022-07-25T10:10:02.931Z,98676.89
2022-07-25T10:13:10.706Z,98674.23
2022-07-25T10:15:57.685Z,98678.61
2022-07-25T10:18:53.431Z,98676.50
2022-07-25T10:21:41.194Z,98669.80
2022-07-25T10:24:37.728Z,98668.47
2022-07-25T10:27:25.840Z,98667.08
2022-07-25T10:30:23.635Z,98657.34
2022-07-25T10:33:21.612Z,98654.67
2022-07-25T10:36:11.437Z,98657.45
2022-07-25T10:39:00.429Z,98659.39
2022-07-25T10:42:05.905Z,98653.78
2022-07-25T10:44:56.746Z,98654.08
2022-07-25T10:47:47.136Z,98654.83
2022-07-25T10:50:54.482Z,98653.03
2022-07-25T10:53:40.744Z,98646.05
2022-07-25T10:56:31.192Z,98646.58
2022-07-25T10:59:28.849Z,98635.09
2022-07-25T11:02:17.310Z,98633.05
2022-07-25T11:05:05.597Z,98634.26
2022-07-25T11:08:20.165Z,98623.09
2022-07-25T11:10:42.743Z,98621.23
2022-07-25T11:13:30.248Z,98625.56
2022-07-25T11:16:18.090Z,98603.50
2022-07-25T11:19:05.781Z,98603.50
2022-07-25T11:24:43.312Z,98602.14
2022-07-25T11:27:32.426Z,98605.53
2022-07-25T11:30:21.250Z,98601.06
2022-07-25T11:33:09.131Z,98602.67
2022-07-25T11:35:56.618Z,98595.83
2022-07-25T11:38:44.273Z,98591.30
2022-07-25T11:41:32.026Z,98587.75
2022-07-25T11:44:19.482Z,98590.23
2022-07-25T11:47:08.978Z,98593.47
2022-07-25T11:49:58.769Z,98590.59
2022-07-25T11:52:46.361Z,98589.08
2022-07-25T11:55:37.590Z,98575.95
2022-07-25T11:58:26.049Z,98571.60
2022-07-25T12:01:15.584Z,98567.41
2022-07-25T12:04:21.615Z,98564.48
2022-07-25T12:07:08.963Z,98572.57
2022-07-25T12:09:59.497Z,98563.15
2022-07-25T12:12:52.774Z,98558.89
2022-07-25T12:15:41.899Z,98550.68
2022-07-25T12:18:29.810Z,98549.15
2022-07-25T12:21:17.588Z,98537.47
2022-07-25T12:24:05.049Z,98537.38
2022-07-25T12:26:52.844Z,98534.06
2022-07-25T12:29:40.790Z,98526.55
2022-07-25T12:32:28.152Z,98524.66
2022-07-25T12:35:16.186Z,98528.54
2022-07-25T12:38:03.976Z,98527.09
2022-07-25T12:40:52.363Z,98528.14
2022-07-25T12:43:39.759Z,98529.47
2022-07-25T12:46:27.340Z,98521.08
2022-07-25T12:49:15.448Z,98516.18
2022-07-25T12:52:03.217Z,98510.40
2022-07-25T12:54:50.411Z,98509.19
2022-07-25T12:57:38.464Z,98501.19
2022-07-25T13:00:27.575Z,98505.67
2022-07-25T13:03:15.776Z,98507.42
2022-07-25T13:06:03.370Z,98505.19
2022-07-25T13:08:50.953Z,98500.59
2022-07-25T13:11:38.411Z,98506.73
2022-07-25T13:14:26.282Z,98503.11
2022-07-25T13:17:13.955Z,98496.44
2022-07-25T13:20:01.962Z,98498.03
2022-07-25T13:22:49.890Z,98493.76
2022-07-25T13:25:37.325Z,98495.68
2022-07-25T13:28:24.935Z,98496.36
2022-07-25T13:31:12.298Z,98494.54
2022-07-25T13:34:00.115Z,98488.09
2022-07-25T13:36:48.441Z,98484.50
2022-07-25T13:39:35.968Z,98480.34
2022-07-25T13:42:23.554Z,98469.89
2022-07-25T13:45:11.409Z,98474.81
2022-07-25T13:48:26.718Z,98474.67
2022-07-25T13:50:48.024Z,98469.73
2022-07-25T13:53:35.755Z,98464.70
2022-07-25T13:56:23.072Z,98458.50
2022-07-25T13:59:13.382Z,98454.47
2022-07-25T14:02:00.022Z,98452.17
2022-07-25T14:04:47.403Z,98452.42
2022-07-25T14:07:36.513Z,98452.52
2022-07-25T14:10:23.890Z,98447.23
2022-07-25T14:13:12.880Z,98438.77
2022-07-25T14:15:59.816Z,98436.20
2022-07-25T14:18:47.761Z,98427.76
2022-07-25T14:21:35.449Z,98424.13
2022-07-25T14:24:23.317Z,98422.70
2022-07-25T14:27:11.895Z,98420.11
2022-07-25T14:29:59.266Z,98420.07
2022-07-25T14:32:47.252Z,98418.91
2022-07-25T14:35:35.889Z,98417.84
2022-07-25T14:38:22.971Z,98413.33
2022-07-25T14:41:13.123Z,98410.73
2022-07-25T14:43:59.946Z,98402.75
2022-07-25T14:46:49.320Z,98397.73
2022-07-25T14:49:36.937Z,98391.34
2022-07-25T14:52:25.041Z,98387.48
2022-07-25T14:55:12.779Z,98382.31
2022-07-25T14:58:01.848Z,98381.28
2022-07-25T15:00:49.460Z,98384.05
2022-07-25T15:03:37.777Z,98373.00
2022-07-25T15:06:29.002Z,98379.95
2022-07-25T15:09:14.705Z,98366.97
2022-07-25T15:12:02.521Z,98363.37
2022-07-25T15:14:50.064Z,98352.09
2022-07-25T15:17:38.925Z,98354.28
2022-07-25T15:20:25.808Z,98355.59
2022-07-25T15:23:13.289Z,98345.22
2022-07-25T15:26:03.324Z,98344.45
2022-07-25T15:28:50.468Z,98341.45
2022-07-25T15:31:38.230Z,98336.09
2022-07-25T15:34:25.717Z,98338.63
2022-07-25T15:37:13.555Z,98335.59
2022-07-25T15:40:01.001Z,98329.13
2022-07-25T15:42:48.297Z,98335.98
2022-07-25T15:45:40.795Z,98333.59
2022-07-25T15:48:29.311Z,98334.28
2022-07-25T15:51:19.656Z,98328.19
2022-07-25T15:54:07.257Z,98330.35
2022-07-25T15:56:54.896Z,98328.90
2022-07-25T15:59:42.409Z,98328.86
2022-07-25T16:02:29.938Z,98320.49
2022-07-25T16:05:17.538Z,98322.94
2022-07-25T16:08:05.104Z,98315.54
2022-07-25T16:10:53.091Z,98313.53
2022-07-25T16:13:41.978Z,98313.69
2022-07-25T16:16:30.174Z,98313.69
2022-07-25T16:19:19.536Z,98309.86
2022-07-25T16:22:07.347Z,98304.73
2022-07-25T16:24:54.494Z,98305.86
2022-07-25T16:27:42.161Z,98303.02
2022-07-25T16:30:29.656Z,98302.97
2022-07-25T16:33:17.604Z,98295.46
2022-07-25T16:36:05.232Z,98297.95
2022-07-25T16:38:53.620Z,98291.81
2022-07-25T16:41:41.035Z,98293.00
2022-07-25T16:44:28.465Z,98284.42
2022-07-25T16:47:15.921Z,98283.33
2022-07-25T16:50:03.483Z,98277.97
2022-07-25T16:52:50.898Z,98281.31
2022-07-25T16:55:38.651Z,98277.69
2022-07-25T16:58:26.001Z,98278.74
2022-07-25T17:01:14.291Z,98275.98
2022-07-25T17:04:01.672Z,98273.70
2022-07-25T17:06:49.345Z,98271.73
2022-07-25T17:09:36.850Z,98276.54
2022-07-25T17:12:24.218Z,98276.52
2022-07-25T17:15:12.753Z,98276.52
2022-07-25T17:18:00.890Z,98271.51
2022-07-25T17:20:49.082Z,98275.38
2022-07-25T17:23:36.601Z,98269.25
2022-07-25T17:26:24.096Z,98263.31
2022-07-25T17:29:11.675Z,98265.55
2022-07-25T17:31:59.686Z,98257.01
2022-07-25T17:34:47.361Z,98260.91
2022-07-25T17:37:34.713Z,98254.38
2022-07-25T17:40:22.489Z,98260.20
2022-07-25T17:43:09.884Z,98260.05
2022-07-25T17:45:57.436Z,98260.33
2022-07-25T17:48:45.641Z,98262.05
2022-07-25T17:51:33.528Z,98253.98
2022-07-25T17:54:20.962Z,98255.00
2022-07-25T17:57:08.721Z,98248.47
2022-07-25T17:59:56.193Z,98243.61
2022-07-25T18:02:43.952Z,98249.39
2022-07-25T18:05:31.378Z,98247.39
2022-07-25T18:08:18.489Z,98241.89
2022-07-25T18:11:06.122Z,98242.81
2022-07-25T18:13:53.670Z,98241.55
2022-07-25T18:16:41.657Z,98245.92
2022-07-25T18:19:29.138Z,98241.28
2022-07-25T18:22:16.690Z,98238.97
2022-07-25T18:25:04.228Z,98231.13
2022-07-25T18:27:53.300Z,98235.58
2022-07-25T18:30:40.790Z,98232.72
2022-07-25T18:33:28.465Z,98232.41
2022-07-25T18:36:15.827Z,98227.27
2022-07-25T18:39:03.187Z,98226.02
2022-07-25T18:41:50.676Z,98224.16
2022-07-25T18:44:38.523Z,98225.66
2022-07-25T18:47:30.941Z,98236.20
2022-07-25T18:50:15.442Z,98237.07
2022-07-25T18:53:02.791Z,98239.28
2022-07-25T18:55:50.688Z,98235.50
2022-07-25T18:58:38.449Z,98232.08
2022-07-25T19:01:26.175Z,98232.09
2022-07-25T19:04:15.532Z,98226.27
2022-07-25T19:07:03.578Z,98230.87
2022-07-25T19:09:51.063Z,98231.22
2022-07-25T19:12:38.741Z,98229.77
2022-07-25T19:15:27.615Z,98218.11
2022-07-25T19:18:15.665Z,98219.89
2022-07-25T19:21:03.745Z,98220.25
2022-07-25T19:23:51.684Z,98218.44
2022-07-25T19:26:39.721Z,98221.59
2022-07-25T19:29:27.808Z,98221.97
2022-07-25T19:32:16.270Z,98220.09
2022-07-25T19:35:06.174Z,98224.25
2022-07-25T19:37:53.609Z,98223.59
2022-07-25T19:40:41.042Z,98221.94
2022-07-25T19:43:29.108Z,98220.34
2022-07-25T19:46:18.290Z,98222.11
2022-07-25T19:49:06.137Z,98218.47
2022-07-25T19:51:53.914Z,98218.84
2022-07-25T19:54:41.531Z,98217.84
2022-07-25T19:57:29.684Z,98219.97
2022-07-25T20:00:17.602Z,98216.94
2022-07-25T20:03:06.585Z,98208.23
2022-07-25T20:05:55.001Z,98207.99
2022-07-25T20:08:43.189Z,98208.95
2022-07-25T20:11:30.627Z,98202.28
2022-07-25T20:14:18.282Z,98204.19
2022-07-25T20:17:07.865Z,98203.27
2022-07-25T20:19:55.827Z,98198.08
2022-07-25T20:22:44.473Z,98199.70
2022-07-25T20:25:32.905Z,98200.68
2022-07-25T20:28:20.578Z,98201.75
2022-07-25T20:31:08.551Z,98199.25
2022-07-25T20:33:56.388Z,98196.58
2022-07-25T20:36:43.945Z,98200.52
2022-07-25T20:39:31.984Z,98200.05
2022-07-25T20:42:19.561Z,98207.11
2022-07-25T20:45:07.985Z,98206.22
2022-07-25T20:47:55.425Z,98213.60
2022-07-25T20:50:43.082Z,98209.77
2022-07-25T20:53:30.289Z,98219.38
2022-07-25T20:56:17.690Z,98210.22
2022-07-25T20:59:05.706Z,98209.11
2022-07-25T21:01:54.047Z,98207.27
2022-07-25T21:04:42.185Z,98204.66
2022-07-25T21:07:29.539Z,98198.69
2022-07-25T21:10:17.416Z,98196.28
2022-07-25T21:13:04.746Z,98196.28
2022-07-25T21:15:52.321Z,98209.19
2022-07-25T21:18:39.838Z,98212.92
2022-07-25T21:21:27.786Z,98219.18
2022-07-25T21:24:15.161Z,98220.14
2022-07-25T21:27:02.570Z,98228.98
2022-07-25T21:29:50.020Z,98212.55
2022-07-25T21:32:39.278Z,98209.69
2022-07-25T21:35:27.028Z,98209.31
2022-07-25T21:38:27.333Z,98209.90
2022-07-25T21:41:04.514Z,98206.02
2022-07-25T21:43:51.642Z,98206.11
2022-07-25T21:46:39.250Z,98203.55
2022-07-25T21:49:44.943Z,98204.14
2022-07-25T21:52:34.803Z,98207.22
2022-07-25T21:55:23.282Z,98205.75
2022-07-25T21:58:10.892Z,98205.61
2022-07-25T22:00:58.339Z,98205.40
2022-07-25T22:03:45.976Z,98203.17
2022-07-25T22:06:33.153Z,98200.92
2022-07-25T22:09:21.106Z,98198.19
2022-07-25T22:12:08.884Z,98194.76
2022-07-25T22:14:55.946Z,98198.42
2022-07-25T22:17:48.663Z,98191.50
2022-07-25T22:20:33.602Z,98192.55
2022-07-25T22:23:20.734Z,98194.53
2022-07-25T22:26:08.522Z,98195.63
2022-07-25T22:28:55.945Z,98192.88
2022-07-25T22:31:44.623Z,98187.81
2022-07-25T22:34:32.730Z,98194.54
2022-07-25T22:37:20.313Z,98196.25
2022-07-25T22:40:08.403Z,98191.12
2022-07-25T22:42:56.353Z,98187.75
2022-07-25T22:45:43.742Z,98185.06
2022-07-25T22:48:31.215Z,98182.03
2022-07-25T22:51:18.752Z,98176.62
2022-07-25T22:54:06.474Z,98170.66
2022-07-25T22:56:53.520Z,98168.73
2022-07-25T22:59:40.609Z,98162.77
2022-07-25T23:02:28.161Z,98154.00
2022-07-25T23:05:16.455Z,98148.65
2022-07-25T23:08:03.769Z,98143.09
2022-07-25T23:10:51.335Z,98138.91
2022-07-25T23:13:39.027Z,98127.05
2022-07-25T23:16:27.751Z,98130.70
2022-07-25T23:19:15.314Z,98126.49
2022-07-25T23:22:02.807Z,98118.15
2022-07-25T23:24:50.712Z,98125.56
2022-07-25T23:27:38.379Z,98124.58
2022-07-25T23:30:26.048Z,98123.12
2022-07-25T23:33:13.521Z,98124.60
2022-07-25T23:36:01.107Z,98127.52
2022-07-25T23:38:48.361Z,98126.89
2022-07-25T23:41:35.785Z,98122.78
2022-07-25T23:44:25.761Z,98115.52
2022-07-25T23:47:15.459Z,98118.24
2022-07-25T23:50:04.881Z,98108.79
2022-07-25T23:52:52.649Z,98102.92
2022-07-25T23:55:40.009Z,98098.66
2022-07-25T23:58:27.666Z,98091.48
